Time;durP1;ratioP1;P1;durP2;ratioP2;P2;SDS_P1;SDS_P2;PMS_P1;PMS_P2;Temp;Humidity;BMP_temperature;BMP_pressure;BME280_temperature;BME280_humidity;BME280_pressure;Samples;Min_cycle;Max_cycle;Signal;HPM_P1;HPM_P2
2023/12/22 00:00:30;;;;;;;95.38;45.55;;;;;;;;;;5014600;28;20401;-71
2023/12/22 00:02:55;;;;;;;103.35;44.20;;;;;;;;;;5012966;28;20045;-71
2023/12/22 00:05:21;;;;;;;72.97;37.80;;;;;;;;;;5012726;28;20253;-71
2023/12/22 00:07:46;;;;;;;75.85;37.75;;;;;;;;;;5013267;28;20037;-71
2023/12/22 00:10:12;;;;;;;70.45;35.63;;;;;;;;;;5014318;28;20433;-71
2023/12/22 00:12:38;;;;;;;59.65;33.08;;;;;;;;;;5029327;28;20380;-71
2023/12/22 00:15:05;;;;;;;60.28;33.92;;;;;;;;;;5011904;28;20078;-71
2023/12/22 00:17:32;;;;;;;59.75;31.80;;;;;;;;;;4992220;28;20121;-69
2023/12/22 00:20:02;;;;;;;64.68;33.92;;;;;;;;;;4993375;28;20369;-71
2023/12/22 00:22:29;;;;;;;65.45;34.60;;;;;;;;;;4999360;28;20045;-71
2023/12/22 00:24:55;;;;;;;62.65;32.42;;;;;;;;;;5013626;28;20038;-70
2023/12/22 00:27:21;;;;;;;68.47;34.13;;;;;;;;;;5011976;28;20072;-71
2023/12/22 00:29:46;;;;;;;60.53;29.98;;;;;;;;;;5012331;28;20034;-70
2023/12/22 00:32:12;;;;;;;54.30;29.13;;;;;;;;;;5013076;28;20030;-72
2023/12/22 00:34:38;;;;;;;62.60;32.00;;;;;;;;;;5028722;28;20103;-70
2023/12/22 00:37:04;;;;;;;50.50;28.35;;;;;;;;;;5013857;28;20038;-71
2023/12/22 00:39:31;;;;;;;53.45;27.92;;;;;;;;;;5013872;28;20030;-70
2023/12/22 00:41:57;;;;;;;55.40;29.50;;;;;;;;;;5014060;28;20041;-70
2023/12/22 00:44:23;;;;;;;57.15;30.25;;;;;;;;;;5011728;28;20049;-71
2023/12/22 00:46:49;;;;;;;67.78;31.02;;;;;;;;;;5012587;28;20046;-71
2023/12/22 00:49:15;;;;;;;71.78;30.38;;;;;;;;;;5013693;28;20018;-71
2023/12/22 00:51:40;;;;;;;65.75;29.63;;;;;;;;;;5013918;28;20041;-70
2023/12/22 00:54:06;;;;;;;52.78;30.27;;;;;;;;;;5015039;28;20034;-70
2023/12/22 00:56:32;;;;;;;57.33;28.67;;;;;;;;;;5013673;28;20121;-71
2023/12/22 00:58:57;;;;;;;55.25;28.27;;;;;;;;;;5013018;28;20044;-70
2023/12/22 01:01:23;;;;;;;50.85;27.20;;;;;;;;;;5008621;28;20117;-70
2023/12/22 01:03:49;;;;;;;51.40;28.88;;;;;;;;;;5011524;28;20034;-72
2023/12/22 01:06:15;;;;;;;44.08;26.55;;;;;;;;;;5013621;28;20030;-71
2023/12/22 01:08:41;;;;;;;57.72;31.77;;;;;;;;;;5013598;28;20041;-71
2023/12/22 01:11:06;;;;;;;57.60;34.00;;;;;;;;;;5013840;28;20105;-70
2023/12/22 01:13:32;;;;;;;60.95;33.00;;;;;;;;;;5013853;28;20034;-70
2023/12/22 01:15:58;;;;;;;66.55;35.85;;;;;;;;;;5014016;28;20186;-71
2023/12/22 01:18:26;;;;;;;57.05;32.78;;;;;;;;;;5013836;28;20029;-73
2023/12/22 01:20:51;;;;;;;62.38;32.63;;;;;;;;;;5013477;28;20101;-72
2023/12/22 01:23:17;;;;;;;59.22;29.38;;;;;;;;;;5013330;28;20511;-71
2023/12/22 01:25:43;;;;;;;46.65;26.33;;;;;;;;;;5012278;28;20029;-71
2023/12/22 01:28:08;;;;;;;48.25;27.92;;;;;;;;;;5013281;28;20557;-71
2023/12/22 01:30:37;;;;;;;49.50;28.17;;;;;;;;;;5013417;28;20080;-72
2023/12/22 01:33:02;;;;;;;53.53;29.77;;;;;;;;;;5013322;28;20057;-70
2023/12/22 01:35:28;;;;;;;55.33;28.60;;;;;;;;;;5013528;28;20041;-71
2023/12/22 01:37:54;;;;;;;59.95;31.33;;;;;;;;;;5013599;28;20045;-72
2023/12/22 01:40:20;;;;;;;57.47;30.17;;;;;;;;;;5013241;28;20025;-72
2023/12/22 01:42:46;;;;;;;59.15;33.45;;;;;;;;;;5011955;28;20099;-71
2023/12/22 01:45:14;;;;;;;54.03;29.23;;;;;;;;;;5011393;28;20040;-72
2023/12/22 01:47:40;;;;;;;47.67;26.92;;;;;;;;;;5011561;28;20032;-71
2023/12/22 01:50:06;;;;;;;51.65;27.02;;;;;;;;;;5005171;28;20373;-71
2023/12/22 01:52:32;;;;;;;49.42;29.13;;;;;;;;;;5013111;28;20034;-72
2023/12/22 01:54:58;;;;;;;53.05;29.38;;;;;;;;;;5012791;28;20030;-71
2023/12/22 01:57:27;;;;;;;52.35;30.67;;;;;;;;;;5012920;28;20038;-71
2023/12/22 01:59:53;;;;;;;51.05;31.02;;;;;;;;;;5012804;28;20022;-72
2023/12/22 02:02:18;;;;;;;66.38;32.38;;;;;;;;;;5011452;28;20116;-71
2023/12/22 02:04:45;;;;;;;54.38;29.83;;;;;;;;;;5012338;28;20124;-71
2023/12/22 02:07:11;;;;;;;59.05;27.63;;;;;;;;;;5007680;28;20032;-71
2023/12/22 02:09:37;;;;;;;48.35;26.33;;;;;;;;;;5012462;28;20029;-71
2023/12/22 02:12:03;;;;;;;51.97;27.55;;;;;;;;;;5027548;28;20050;-71
2023/12/22 02:14:29;;;;;;;45.67;25.98;;;;;;;;;;5012764;28;20038;-70
2023/12/22 02:17:06;;;;;;;43.30;24.23;;;;;;;;;;5012649;28;20026;-72
2023/12/22 02:19:45;;;;;;;44.60;25.30;;;;;;;;;;5012794;28;20076;-71
2023/12/22 02:22:12;;;;;;;41.05;23.13;;;;;;;;;;5006041;28;20125;-71
2023/12/22 02:24:39;;;;;;;42.85;23.05;;;;;;;;;;4991963;28;20052;-71
2023/12/22 02:27:33;;;;;;;42.03;24.67;;;;;;;;;;4992520;28;20034;-71
2023/12/22 02:30:13;;;;;;;35.60;20.65;;;;;;;;;;4996084;28;20034;-71
2023/12/22 02:32:45;;;;;;;34.63;18.30;;;;;;;;;;5009476;28;20096;-71
2023/12/22 02:35:22;;;;;;;30.00;18.20;;;;;;;;;;5007377;28;20384;-71
2023/12/22 02:37:49;;;;;;;40.63;20.63;;;;;;;;;;5009894;28;20038;-71
2023/12/22 02:40:15;;;;;;;33.58;18.95;;;;;;;;;;5010950;28;20026;-71
2023/12/22 02:42:42;;;;;;;30.67;18.70;;;;;;;;;;5012104;28;20041;-71
2023/12/22 02:45:14;;;;;;;37.33;21.67;;;;;;;;;;5010658;28;20400;-71
2023/12/22 02:47:41;;;;;;;31.23;16.57;;;;;;;;;;5012123;28;20064;-70
2023/12/22 02:50:07;;;;;;;31.35;17.88;;;;;;;;;;5012370;28;20026;-71
2023/12/22 02:52:33;;;;;;;26.20;14.60;;;;;;;;;;5011882;28;20038;-71
2023/12/22 02:54:59;;;;;;;32.95;18.90;;;;;;;;;;5011557;28;20041;-71
2023/12/22 02:57:24;;;;;;;33.40;17.23;;;;;;;;;;5012474;28;20056;-70
2023/12/22 02:59:50;;;;;;;25.27;14.60;;;;;;;;;;5011856;28;20066;-72
2023/12/22 03:02:16;;;;;;;25.83;14.23;;;;;;;;;;5012076;28;20042;-71
2023/12/22 03:04:42;;;;;;;25.10;14.52;;;;;;;;;;5012031;28;20045;-71
2023/12/22 03:07:07;;;;;;;25.75;14.77;;;;;;;;;;5011747;28;20589;-70
2023/12/22 03:09:34;;;;;;;23.95;13.93;;;;;;;;;;5011873;28;20422;-71
2023/12/22 03:12:03;;;;;;;27.20;15.80;;;;;;;;;;5011905;28;20100;-71
2023/12/22 03:14:30;;;;;;;27.73;15.52;;;;;;;;;;5011752;28;20041;-71
2023/12/22 03:16:56;;;;;;;23.90;14.30;;;;;;;;;;5010768;28;20540;-71
2023/12/22 03:19:24;;;;;;;23.67;14.20;;;;;;;;;;5009318;28;20475;-70
2023/12/22 03:21:50;;;;;;;24.45;13.98;;;;;;;;;;5007976;28;20467;-70
2023/12/22 03:24:19;;;;;;;26.92;14.23;;;;;;;;;;5011419;28;20057;-71
2023/12/22 03:26:45;;;;;;;24.02;12.90;;;;;;;;;;5011649;28;20546;-71
2023/12/22 03:29:11;;;;;;;21.70;12.73;;;;;;;;;;5010072;28;20034;-71
2023/12/22 03:31:37;;;;;;;18.73;10.40;;;;;;;;;;5010180;28;20116;-70
2023/12/22 03:34:03;;;;;;;16.23;10.50;;;;;;;;;;5011546;28;20491;-71
2023/12/22 03:36:28;;;;;;;15.68;9.32;;;;;;;;;;5011584;28;20038;-71
2023/12/22 03:38:54;;;;;;;17.50;9.38;;;;;;;;;;5011538;28;20022;-71
2023/12/22 03:41:20;;;;;;;14.68;8.65;;;;;;;;;;5012152;28;20042;-71
2023/12/22 03:43:45;;;;;;;15.68;9.23;;;;;;;;;;5011569;28;20030;-71
2023/12/22 03:46:11;;;;;;;16.75;10.05;;;;;;;;;;5011427;28;20179;-71
2023/12/22 03:48:37;;;;;;;17.60;9.55;;;;;;;;;;5012032;28;20022;-71
2023/12/22 03:51:03;;;;;;;19.85;9.27;;;;;;;;;;5011427;28;20108;-72
2023/12/22 03:53:29;;;;;;;14.50;8.85;;;;;;;;;;5012310;28;20026;-70
2023/12/22 03:55:55;;;;;;;22.33;9.63;;;;;;;;;;5011813;28;20038;-70
2023/12/22 03:58:21;;;;;;;24.40;9.23;;;;;;;;;;5011287;28;20076;-71
2023/12/22 04:00:47;;;;;;;17.38;9.73;;;;;;;;;;5011221;28;20041;-71
2023/12/22 04:03:13;;;;;;;26.02;11.05;;;;;;;;;;5011372;28;20026;-70
2023/12/22 04:05:38;;;;;;;26.58;10.68;;;;;;;;;;5011671;28;20099;-71
2023/12/22 04:08:05;;;;;;;26.27;12.45;;;;;;;;;;5014332;28;20032;-71
2023/12/22 04:10:31;;;;;;;24.40;12.00;;;;;;;;;;5014762;28;20109;-69
2023/12/22 04:12:56;;;;;;;58.85;22.23;;;;;;;;;;5011169;28;20121;-71
2023/12/22 04:15:22;;;;;;;21.23;12.77;;;;;;;;;;5014357;28;20069;-70
2023/12/22 04:17:49;;;;;;;22.65;11.77;;;;;;;;;;5002752;28;155502;-70
2023/12/22 04:20:15;;;;;;;18.98;10.57;;;;;;;;;;5014273;28;20468;-71
2023/12/22 04:22:41;;;;;;;17.55;10.35;;;;;;;;;;5011015;28;20104;-71
2023/12/22 04:25:08;;;;;;;24.00;12.05;;;;;;;;;;5014295;28;20461;-71
2023/12/22 04:27:34;;;;;;;18.63;11.30;;;;;;;;;;5029309;28;20116;-71
2023/12/22 04:30:01;;;;;;;24.33;12.30;;;;;;;;;;5014136;28;20117;-71
2023/12/22 04:32:26;;;;;;;46.15;13.35;;;;;;;;;;5014144;28;20080;-71
2023/12/22 04:34:52;;;;;;;28.58;13.52;;;;;;;;;;5013488;28;20046;-71
2023/12/22 04:37:18;;;;;;;24.17;12.88;;;;;;;;;;5014151;28;20368;-70
2023/12/22 04:39:45;;;;;;;21.65;12.65;;;;;;;;;;5013960;28;20428;-70
2023/12/22 04:42:11;;;;;;;30.25;14.10;;;;;;;;;;5013626;28;20026;-70
2023/12/22 04:44:36;;;;;;;26.45;12.90;;;;;;;;;;5014633;28;20080;-71
2023/12/22 04:47:02;;;;;;;25.70;13.63;;;;;;;;;;5013875;28;20388;-71
2023/12/22 04:49:28;;;;;;;26.10;12.48;;;;;;;;;;4983826;28;96201;-71
2023/12/22 04:51:54;;;;;;;22.30;12.93;;;;;;;;;;4996949;28;20396;-71
2023/12/22 04:54:19;;;;;;;29.98;13.05;;;;;;;;;;5013500;28;20105;-71
2023/12/22 04:56:45;;;;;;;24.55;12.88;;;;;;;;;;5005797;28;20484;-70
2023/12/22 04:59:11;;;;;;;26.27;12.82;;;;;;;;;;5010882;28;20030;-70
2023/12/22 05:01:36;;;;;;;33.63;15.27;;;;;;;;;;5012694;28;20488;-71
2023/12/22 05:04:03;;;;;;;25.38;13.85;;;;;;;;;;5012770;28;20029;-71
2023/12/22 05:06:30;;;;;;;29.55;14.32;;;;;;;;;;5012849;28;20045;-71
2023/12/22 05:08:56;;;;;;;22.38;13.55;;;;;;;;;;5012650;28;20113;-70
2023/12/22 05:11:22;;;;;;;28.65;14.00;;;;;;;;;;5012652;28;20032;-71
2023/12/22 05:13:48;;;;;;;26.10;14.20;;;;;;;;;;5009015;28;20031;-70
2023/12/22 05:16:14;;;;;;;24.42;14.48;;;;;;;;;;5011636;28;20065;-71
2023/12/22 05:18:40;;;;;;;33.05;15.57;;;;;;;;;;5012566;28;20542;-71
2023/12/22 05:21:06;;;;;;;29.80;13.93;;;;;;;;;;5012793;28;20184;-71
2023/12/22 05:23:32;;;;;;;24.90;12.35;;;;;;;;;;5013030;28;20124;-71
2023/12/22 05:25:58;;;;;;;25.23;12.77;;;;;;;;;;5011816;28;20037;-71
2023/12/22 05:28:23;;;;;;;20.65;12.25;;;;;;;;;;5013095;28;20029;-70
2023/12/22 05:30:49;;;;;;;23.52;13.50;;;;;;;;;;5011669;28;20045;-71
2023/12/22 05:33:15;;;;;;;25.85;13.80;;;;;;;;;;5012381;28;20118;-70
2023/12/22 05:35:40;;;;;;;30.85;14.20;;;;;;;;;;5012310;28;20403;-71
2023/12/22 05:38:07;;;;;;;23.70;12.40;;;;;;;;;;5012463;28;20038;-71
2023/12/22 05:40:33;;;;;;;26.40;13.35;;;;;;;;;;5012775;28;20348;-71
2023/12/22 05:42:58;;;;;;;24.02;11.77;;;;;;;;;;5009622;28;20088;-72
2023/12/22 05:45:24;;;;;;;41.08;16.67;;;;;;;;;;5019659;28;20038;-72
2023/12/22 05:47:50;;;;;;;34.78;16.40;;;;;;;;;;5011087;28;20042;-72
2023/12/22 05:50:16;;;;;;;31.45;14.30;;;;;;;;;;5026548;28;20018;-73
2023/12/22 05:52:46;;;;;;;26.48;12.98;;;;;;;;;;5009959;28;20048;-72
2023/12/22 05:55:11;;;;;;;26.05;13.15;;;;;;;;;;5005634;28;20087;-72
2023/12/22 05:57:38;;;;;;;34.47;14.32;;;;;;;;;;5004005;28;20057;-73
2023/12/22 06:00:07;;;;;;;28.83;14.18;;;;;;;;;;5008634;28;20499;-73
2023/12/22 06:02:34;;;;;;;30.10;13.98;;;;;;;;;;5011340;28;20072;-72
2023/12/22 06:08:13;;;;;;;31.98;14.05;;;;;;;;;;4996085;28;20108;-73
2023/12/22 06:10:40;;;;;;;35.13;15.23;;;;;;;;;;5011016;28;20033;-74
2023/12/22 06:13:06;;;;;;;24.02;13.00;;;;;;;;;;5010820;28;20484;-74
2023/12/22 06:15:32;;;;;;;20.20;12.07;;;;;;;;;;5026322;28;20022;-73
2023/12/22 06:17:58;;;;;;;27.17;14.35;;;;;;;;;;5010850;28;20079;-72
2023/12/22 06:20:23;;;;;;;22.17;10.63;;;;;;;;;;5011059;28;20030;-73
2023/12/22 06:22:49;;;;;;;22.50;12.95;;;;;;;;;;5010439;28;20116;-73
2023/12/22 06:25:15;;;;;;;28.77;13.45;;;;;;;;;;5008206;28;20030;-72
2023/12/22 06:27:41;;;;;;;29.58;14.07;;;;;;;;;;5005760;28;20057;-72
2023/12/22 06:30:07;;;;;;;30.55;15.13;;;;;;;;;;5004670;28;20352;-72
2023/12/22 06:32:33;;;;;;;33.60;15.70;;;;;;;;;;5010138;28;20029;-72
2023/12/22 06:35:00;;;;;;;30.60;14.65;;;;;;;;;;5010354;28;20041;-72
2023/12/22 06:37:27;;;;;;;36.83;14.88;;;;;;;;;;5011239;28;20040;-73
2023/12/22 06:39:52;;;;;;;26.52;13.25;;;;;;;;;;5010857;28;20038;-72
2023/12/22 06:42:19;;;;;;;38.65;15.20;;;;;;;;;;5011596;28;20152;-73
2023/12/22 06:44:45;;;;;;;22.75;12.65;;;;;;;;;;5011334;28;20053;-73
2023/12/22 06:47:11;;;;;;;31.15;13.93;;;;;;;;;;5010788;28;20025;-74
2023/12/22 06:49:36;;;;;;;23.17;13.10;;;;;;;;;;5010999;28;20022;-72
2023/12/22 06:52:02;;;;;;;33.88;13.00;;;;;;;;;;5011730;28;20484;-72
2023/12/22 06:54:29;;;;;;;26.63;12.85;;;;;;;;;;5020293;28;20034;-73
2023/12/22 06:56:54;;;;;;;24.35;12.70;;;;;;;;;;5027882;28;20076;-73
2023/12/22 06:59:20;;;;;;;36.63;15.85;;;;;;;;;;5021004;28;20026;-72
2023/12/22 07:01:46;;;;;;;30.88;13.18;;;;;;;;;;5022771;28;20056;-74
2023/12/22 07:04:11;;;;;;;43.65;17.80;;;;;;;;;;5010931;28;20033;-72
2023/12/22 07:06:38;;;;;;;44.67;17.17;;;;;;;;;;5010413;28;20336;-72
2023/12/22 07:09:19;;;;;;;41.00;16.88;;;;;;;;;;5021020;28;20041;-72
2023/12/22 07:11:49;;;;;;;38.38;15.50;;;;;;;;;;5022459;28;20088;-73
2023/12/22 07:14:15;;;;;;;39.53;17.00;;;;;;;;;;5014478;28;20135;-73
2023/12/22 07:16:44;;;;;;;40.65;16.88;;;;;;;;;;5030718;28;20148;-73
2023/12/22 07:19:13;;;;;;;36.95;17.20;;;;;;;;;;5030892;28;20044;-72
2023/12/22 07:21:39;;;;;;;29.98;15.98;;;;;;;;;;5023748;28;20141;-72
2023/12/22 07:24:06;;;;;;;38.15;17.15;;;;;;;;;;5029206;28;20025;-72
2023/12/22 07:26:32;;;;;;;35.17;18.27;;;;;;;;;;5030486;28;20030;-72
2023/12/22 07:28:58;;;;;;;37.28;18.70;;;;;;;;;;5029072;28;20033;-73
2023/12/22 07:31:25;;;;;;;29.88;18.50;;;;;;;;;;5019212;28;20037;-72
2023/12/22 07:33:51;;;;;;;38.00;19.10;;;;;;;;;;4987195;28;20408;-73
2023/12/22 07:36:21;;;;;;;30.83;18.30;;;;;;;;;;5026787;28;20421;-72
2023/12/22 07:38:47;;;;;;;31.85;17.23;;;;;;;;;;5018322;28;20036;-71
2023/12/22 07:41:12;;;;;;;33.63;18.45;;;;;;;;;;5010897;28;20030;-73
2023/12/22 07:43:38;;;;;;;38.15;19.67;;;;;;;;;;5011807;28;20065;-72
2023/12/22 07:46:05;;;;;;;36.20;18.23;;;;;;;;;;5032618;28;20029;-72
2023/12/22 07:48:31;;;;;;;33.10;17.85;;;;;;;;;;5020215;28;20029;-73
2023/12/22 07:50:56;;;;;;;36.35;17.85;;;;;;;;;;5013016;28;20029;-73
2023/12/22 07:53:23;;;;;;;43.67;20.63;;;;;;;;;;5013963;28;20045;-73
2023/12/22 07:55:48;;;;;;;39.05;20.95;;;;;;;;;;5014082;28;20391;-71
2023/12/22 07:58:14;;;;;;;29.10;16.30;;;;;;;;;;5014103;28;20049;-72
2023/12/22 08:00:40;;;;;;;28.20;16.83;;;;;;;;;;5013752;28;20465;-73
2023/12/22 08:03:06;;;;;;;32.42;18.45;;;;;;;;;;5031822;28;20025;-73
2023/12/22 08:05:33;;;;;;;34.60;15.40;;;;;;;;;;5026400;28;20511;-71
2023/12/22 08:08:00;;;;;;;21.38;14.02;;;;;;;;;;5014863;28;20053;-73
2023/12/22 08:10:27;;;;;;;24.92;15.27;;;;;;;;;;5000891;28;20056;-72
2023/12/22 08:12:53;;;;;;;26.98;15.90;;;;;;;;;;5017002;28;20038;-72
2023/12/22 08:15:18;;;;;;;32.42;16.88;;;;;;;;;;5033269;28;20113;-72
2023/12/22 08:17:49;;;;;;;29.98;16.67;;;;;;;;;;5015547;28;20324;-72
2023/12/22 08:20:19;;;;;;;24.17;13.73;;;;;;;;;;5033761;28;20474;-73
2023/12/22 08:22:48;;;;;;;26.23;15.30;;;;;;;;;;5032953;28;20108;-72
2023/12/22 08:25:14;;;;;;;37.08;17.15;;;;;;;;;;5024434;28;20046;-72
2023/12/22 08:27:40;;;;;;;34.28;15.98;;;;;;;;;;5004889;28;20040;-73
2023/12/22 08:30:06;;;;;;;23.92;14.73;;;;;;;;;;5022515;28;20022;-72
2023/12/22 08:32:34;;;;;;;38.10;18.45;;;;;;;;;;5017693;28;20045;-71
2023/12/22 08:35:00;;;;;;;26.75;15.48;;;;;;;;;;5020502;28;20037;-73
2023/12/22 08:37:25;;;;;;;27.15;16.42;;;;;;;;;;5039968;28;20068;-73
2023/12/22 08:39:52;;;;;;;33.22;17.45;;;;;;;;;;5016821;28;20168;-72
2023/12/22 08:42:19;;;;;;;27.20;16.17;;;;;;;;;;5026309;28;20069;-72
2023/12/22 08:44:45;;;;;;;31.13;17.27;;;;;;;;;;5023384;28;20033;-72
2023/12/22 08:47:12;;;;;;;25.88;15.75;;;;;;;;;;5025018;28;20514;-73
2023/12/22 08:49:37;;;;;;;28.48;16.33;;;;;;;;;;5025415;28;20033;-72
2023/12/22 08:52:04;;;;;;;26.08;16.20;;;;;;;;;;5014563;28;20044;-72
2023/12/22 08:54:30;;;;;;;33.78;18.05;;;;;;;;;;5010824;28;20061;-73
2023/12/22 08:56:56;;;;;;;36.92;20.83;;;;;;;;;;5013878;28;20083;-72
2023/12/22 08:59:22;;;;;;;30.55;16.05;;;;;;;;;;5013282;28;20132;-72
2023/12/22 09:01:48;;;;;;;24.33;14.32;;;;;;;;;;5012115;28;20046;-71
2023/12/22 09:04:15;;;;;;;28.33;15.85;;;;;;;;;;4996214;28;20085;-71
2023/12/22 09:06:40;;;;;;;25.42;15.65;;;;;;;;;;5013402;28;20022;-74
2023/12/22 09:09:08;;;;;;;33.03;17.27;;;;;;;;;;5013260;28;20038;-72
2023/12/22 09:11:35;;;;;;;28.13;16.50;;;;;;;;;;5013380;28;20525;-72
2023/12/22 09:14:02;;;;;;;32.25;18.40;;;;;;;;;;5028148;28;20026;-71
2023/12/22 09:16:28;;;;;;;33.95;20.25;;;;;;;;;;5013059;28;20444;-71
2023/12/22 09:18:53;;;;;;;42.20;22.75;;;;;;;;;;5013631;28;20496;-69
2023/12/22 09:21:19;;;;;;;38.17;23.27;;;;;;;;;;5012789;28;20547;-72
2023/12/22 09:23:46;;;;;;;38.97;22.30;;;;;;;;;;5012839;28;20096;-72
2023/12/22 09:26:13;;;;;;;44.85;25.35;;;;;;;;;;5013275;28;20459;-71
2023/12/22 09:28:40;;;;;;;42.13;23.85;;;;;;;;;;5013436;28;20025;-73
2023/12/22 09:31:07;;;;;;;42.63;25.23;;;;;;;;;;5012946;28;20108;-70
2023/12/22 09:33:33;;;;;;;38.65;22.92;;;;;;;;;;5012426;28;20037;-71
2023/12/22 09:35:59;;;;;;;41.15;20.52;;;;;;;;;;5011563;28;20364;-73
2023/12/22 09:38:24;;;;;;;44.00;25.70;;;;;;;;;;5011605;28;20062;-71
2023/12/22 09:40:50;;;;;;;49.75;26.15;;;;;;;;;;5028805;28;20049;-72
2023/12/22 09:43:19;;;;;;;52.50;25.27;;;;;;;;;;5019234;28;20034;-70
2023/12/22 09:45:49;;;;;;;47.03;26.35;;;;;;;;;;5012689;28;20437;-71
2023/12/22 09:48:17;;;;;;;43.47;25.77;;;;;;;;;;5012668;28;20045;-70
2023/12/22 09:50:45;;;;;;;42.25;24.60;;;;;;;;;;5012575;28;20026;-73
2023/12/22 09:53:13;;;;;;;50.17;27.20;;;;;;;;;;5011906;28;20041;-71
2023/12/22 09:55:46;;;;;;;41.08;24.38;;;;;;;;;;5012317;28;20033;-71
2023/12/22 09:58:14;;;;;;;;;;;;;;;;;;5011672;28;20442;-71
2023/12/22 10:00:40;;;;;;;52.53;28.88;;;;;;;;;;5012474;28;19933;-70
2023/12/22 10:03:07;;;;;;;56.85;33.03;;;;;;;;;;5012047;28;20124;-71
2023/12/22 10:05:33;;;;;;;48.88;29.08;;;;;;;;;;5012998;28;20048;-72
2023/12/22 10:08:01;;;;;;;53.80;30.42;;;;;;;;;;5011993;28;20034;-70
2023/12/22 10:10:30;;;;;;;65.93;35.08;;;;;;;;;;5012251;28;20046;-71
2023/12/22 10:12:59;;;;;;;67.07;32.35;;;;;;;;;;5012034;28;20064;-73
2023/12/22 10:15:26;;;;;;;50.80;31.13;;;;;;;;;;5010735;28;20530;-72
2023/12/22 10:17:53;;;;;;;56.08;29.33;;;;;;;;;;5012001;28;20068;-72
2023/12/22 10:20:19;;;;;;;55.17;30.83;;;;;;;;;;5013126;28;20106;-72
2023/12/22 10:22:46;;;;;;;43.08;27.55;;;;;;;;;;5012335;28;20061;-72
2023/12/22 10:25:16;;;;;;;44.75;25.75;;;;;;;;;;5010710;28;20180;-71
2023/12/22 10:27:43;;;;;;;41.33;24.38;;;;;;;;;;5012044;28;20469;-71
2023/12/22 10:30:10;;;;;;;44.22;24.55;;;;;;;;;;5011528;28;20030;-72
2023/12/22 10:32:43;;;;;;;34.95;22.23;;;;;;;;;;4994467;28;20040;-74
2023/12/22 10:35:09;;;;;;;45.60;21.00;;;;;;;;;;5010343;28;20464;-70
2023/12/22 10:37:36;;;;;;;41.88;19.50;;;;;;;;;;5010205;28;20033;-71
2023/12/22 10:40:08;;;;;;;29.05;18.27;;;;;;;;;;5011842;28;20026;-72
2023/12/22 10:42:35;;;;;;;36.22;18.27;;;;;;;;;;5011948;28;20456;-71
2023/12/22 10:45:01;;;;;;;29.95;16.42;;;;;;;;;;5011757;28;20559;-70
2023/12/22 10:47:29;;;;;;;28.48;16.27;;;;;;;;;;5011978;28;20108;-72
2023/12/22 10:49:54;;;;;;;35.78;19.15;;;;;;;;;;5011511;28;20041;-71
2023/12/22 10:52:20;;;;;;;32.83;19.17;;;;;;;;;;5012132;28;20030;-72
2023/12/22 10:54:48;;;;;;;36.13;20.05;;;;;;;;;;5011506;28;20061;-73
2023/12/22 10:57:17;;;;;;;33.55;19.98;;;;;;;;;;5011597;28;20038;-73
2023/12/22 10:59:47;;;;;;;33.65;20.25;;;;;;;;;;5011051;28;20041;-72
2023/12/22 11:02:18;;;;;;;35.85;20.20;;;;;;;;;;5011310;28;20034;-74
2023/12/22 11:05:05;;;;;;;35.10;22.05;;;;;;;;;;5011813;28;20046;-72
2023/12/22 11:07:35;;;;;;;42.45;20.45;;;;;;;;;;5012120;28;20080;-72
2023/12/22 11:10:06;;;;;;;49.65;19.95;;;;;;;;;;5011940;28;20029;-72
2023/12/22 11:12:35;;;;;;;28.48;17.75;;;;;;;;;;5011810;28;20069;-72
2023/12/22 11:15:05;;;;;;;28.63;16.00;;;;;;;;;;5009587;28;20265;-72
2023/12/22 11:17:33;;;;;;;22.52;13.27;;;;;;;;;;5013481;28;20038;-70
2023/12/22 11:19:59;;;;;;;28.65;13.77;;;;;;;;;;5014496;28;20030;-72
2023/12/22 11:22:25;;;;;;;21.95;13.35;;;;;;;;;;5014831;28;20037;-73
2023/12/22 11:24:55;;;;;;;27.67;14.55;;;;;;;;;;5015302;28;20046;-72
2023/12/22 11:27:23;;;;;;;21.08;13.55;;;;;;;;;;4997963;28;20025;-73
2023/12/22 11:29:50;;;;;;;22.83;13.95;;;;;;;;;;5014523;28;20030;-72
2023/12/22 11:32:17;;;;;;;21.70;12.90;;;;;;;;;;5014529;28;20088;-72
2023/12/22 11:34:44;;;;;;;45.53;18.00;;;;;;;;;;5014860;28;20511;-72
2023/12/22 11:37:12;;;;;;;21.85;13.13;;;;;;;;;;5015436;28;20041;-72
2023/12/22 11:39:39;;;;;;;28.17;14.65;;;;;;;;;;5015286;28;20045;-72
2023/12/22 11:42:11;;;;;;;24.92;12.95;;;;;;;;;;5013591;28;20391;-72
2023/12/22 11:44:37;;;;;;;18.95;11.77;;;;;;;;;;5015116;28;20042;-73
2023/12/22 11:47:06;;;;;;;20.08;11.15;;;;;;;;;;5014726;28;20099;-73
2023/12/22 11:49:37;;;;;;;21.17;13.00;;;;;;;;;;5013656;28;20512;-72
2023/12/22 11:52:17;;;;;;;27.25;12.63;;;;;;;;;;5013393;28;20057;-72
2023/12/22 11:54:47;;;;;;;20.85;13.07;;;;;;;;;;5014312;28;20044;-73
2023/12/22 11:57:37;;;;;;;19.60;12.57;;;;;;;;;;5015137;28;20277;-73
2023/12/22 12:00:07;;;;;;;26.05;13.65;;;;;;;;;;5013428;28;20033;-73
2023/12/22 12:02:41;;;;;;;25.77;14.80;;;;;;;;;;5014841;28;20060;-74
2023/12/22 12:05:08;;;;;;;23.95;12.98;;;;;;;;;;5012394;28;20046;-73
2023/12/22 12:07:44;;;;;;;18.30;10.55;;;;;;;;;;5014565;28;20499;-74
2023/12/22 12:10:31;;;;;;;20.10;12.85;;;;;;;;;;5015174;28;20052;-72
2023/12/22 12:13:10;;;;;;;15.07;9.90;;;;;;;;;;5013511;28;20054;-72
2023/12/22 12:15:37;;;;;;;22.00;9.45;;;;;;;;;;5014075;28;20036;-71
2023/12/22 12:18:04;;;;;;;12.20;7.20;;;;;;;;;;5013109;28;20021;-72
2023/12/22 12:20:30;;;;;;;13.07;7.72;;;;;;;;;;5012716;28;20403;-72
2023/12/22 12:22:56;;;;;;;18.63;8.68;;;;;;;;;;5013298;28;20503;-73
2023/12/22 12:25:25;;;;;;;11.50;7.50;;;;;;;;;;5014120;28;20487;-73
2023/12/22 12:28:04;;;;;;;10.98;7.43;;;;;;;;;;5012495;28;20088;-71
2023/12/22 12:30:31;;;;;;;15.18;8.77;;;;;;;;;;5014397;28;20460;-71
2023/12/22 12:33:05;;;;;;;23.33;10.60;;;;;;;;;;5013134;28;20041;-73
2023/12/22 12:35:35;;;;;;;15.73;8.73;;;;;;;;;;5014249;28;20041;-72
2023/12/22 12:38:00;;;;;;;13.90;7.75;;;;;;;;;;5009359;28;20038;-72
2023/12/22 12:40:33;;;;;;;19.48;8.57;;;;;;;;;;5020861;28;20080;-72
2023/12/22 12:43:00;;;;;;;20.52;10.25;;;;;;;;;;5017195;28;20164;-72
2023/12/22 12:45:26;;;;;;;20.98;8.82;;;;;;;;;;5018257;28;20507;-72
2023/12/22 12:47:59;;;;;;;15.43;7.68;;;;;;;;;;5014129;28;20044;-72
2023/12/22 12:50:26;;;;;;;14.57;5.93;;;;;;;;;;5014406;28;20025;-71
2023/12/22 12:52:55;;;;;;;16.05;7.47;;;;;;;;;;5013926;28;20537;-72
2023/12/22 12:55:22;;;;;;;10.77;6.47;;;;;;;;;;5013719;28;20078;-73
2023/12/22 12:57:52;;;;;;;12.93;8.27;;;;;;;;;;5013421;28;20456;-72
2023/12/22 13:00:28;;;;;;;15.70;9.27;;;;;;;;;;5013346;28;20046;-72
2023/12/22 13:02:58;;;;;;;20.70;9.40;;;;;;;;;;5012518;28;20037;-71
2023/12/22 13:05:24;;;;;;;18.52;9.13;;;;;;;;;;5012382;28;20422;-72
2023/12/22 13:07:50;;;;;;;20.55;10.60;;;;;;;;;;5012095;28;20480;-73
2023/12/22 13:10:24;;;;;;;22.67;7.50;;;;;;;;;;5012355;28;20034;-73
2023/12/22 13:12:53;;;;;;;19.20;8.27;;;;;;;;;;5013498;28;20117;-71
2023/12/22 13:15:21;;;;;;;16.20;6.72;;;;;;;;;;5013102;28;20025;-71
2023/12/22 13:17:47;;;;;;;22.27;8.48;;;;;;;;;;5012189;28;20092;-71
2023/12/22 13:20:13;;;;;;;19.88;8.55;;;;;;;;;;5013862;28;20046;-70
2023/12/22 13:22:39;;;;;;;16.40;7.57;;;;;;;;;;5013869;28;20136;-71
2023/12/22 13:25:05;;;;;;;30.85;10.35;;;;;;;;;;5012732;28;20022;-71
2023/12/22 13:27:43;;;;;;;27.42;11.10;;;;;;;;;;5013400;28;20026;-71
2023/12/22 13:30:09;;;;;;;20.33;8.07;;;;;;;;;;5013309;28;20061;-72
2023/12/22 13:32:37;;;;;;;16.00;8.48;;;;;;;;;;5012942;28;20022;-70
2023/12/22 13:35:04;;;;;;;12.43;7.38;;;;;;;;;;5012629;28;20109;-70
2023/12/22 13:37:31;;;;;;;12.77;6.10;;;;;;;;;;5004724;28;20026;-70
2023/12/22 13:40:00;;;;;;;10.05;6.10;;;;;;;;;;5012080;28;20038;-70
2023/12/22 13:42:26;;;;;;;13.25;5.28;;;;;;;;;;5012506;28;20037;-71
2023/12/22 13:44:52;;;;;;;22.58;7.18;;;;;;;;;;5012139;28;20029;-73
2023/12/22 13:47:20;;;;;;;14.95;5.82;;;;;;;;;;5012242;28;20053;-71
2023/12/22 13:49:46;;;;;;;16.30;8.77;;;;;;;;;;5010424;28;20049;-70
2023/12/22 13:52:25;;;;;;;11.18;6.18;;;;;;;;;;5012895;28;20084;-72
2023/12/22 13:54:53;;;;;;;11.43;5.80;;;;;;;;;;5010203;28;20042;-72
2023/12/22 13:57:22;;;;;;;14.27;6.68;;;;;;;;;;5011937;28;20450;-71
2023/12/22 13:59:48;;;;;;;18.42;8.63;;;;;;;;;;5011953;28;20026;-72
2023/12/22 14:02:14;;;;;;;19.48;8.30;;;;;;;;;;5011784;28;20044;-72
2023/12/22 14:04:39;;;;;;;19.08;8.32;;;;;;;;;;5009742;28;20373;-72
2023/12/22 14:07:05;;;;;;;16.60;7.40;;;;;;;;;;5012118;28;20033;-70
2023/12/22 14:09:33;;;;;;;12.10;6.80;;;;;;;;;;5009310;28;20042;-71
2023/12/22 14:12:00;;;;;;;13.50;7.13;;;;;;;;;;5011905;28;20037;-72
2023/12/22 14:14:26;;;;;;;14.45;6.88;;;;;;;;;;5009448;28;20025;-71
2023/12/22 14:16:51;;;;;;;14.27;6.13;;;;;;;;;;5011256;28;20473;-72
2023/12/22 14:19:17;;;;;;;11.90;5.13;;;;;;;;;;5009922;28;20091;-72
2023/12/22 14:21:43;;;;;;;9.60;4.95;;;;;;;;;;5011469;28;20460;-72